Echo Bay, Nevada
Current Conditions -  °F | °C
As of 2:58 AM on Tuesday 21 Oct 2014 (Local Time) from KLSV Reporting Station
Clear Clear  
Wind Chill: 75°   Ceiling: Unl
Heat Index: 75°   Visibility: 10mi
Dew Point: 41°   Wind: 12mph
Humidity: 30%   Direction: 180°S
Pressure: 29.83"   Gusts: NA
Location:  36.5809°N, 114.605°W
Report Text: KLSV 210958Z AUTO 18010KT 10SM CLR 24/05 A2983 RMK AO2 SLP079 T02370049 $
Loading
Personal Weather Stations






























Interactive Weather Map New forecast layout! Learn more

10-Day Weather Forecast

Advertisements
Track Severe Weather on mobile